sensor_id;sensor_type;location;lat;lon;timestamp;P1;durP1;ratioP1;P2;durP2;ratioP2
52724;SDS011;38621;52.830;6.914;2023-03-14T00:01:45;10.30;;;2.60;;
52724;SDS011;38621;52.830;6.914;2023-03-14T00:04:11;6.57;;;2.90;;
52724;SDS011;38621;52.830;6.914;2023-03-14T00:06:37;9.10;;;2.97;;
52724;SDS011;38621;52.830;6.914;2023-03-14T00:09:02;11.57;;;2.92;;
52724;SDS011;38621;52.830;6.914;2023-03-14T00:11:28;8.85;;;2.95;;
52724;SDS011;38621;52.830;6.914;2023-03-14T00:13:54;9.27;;;2.70;;
52724;SDS011;38621;52.830;6.914;2023-03-14T00:16:20;12.38;;;2.78;;
52724;SDS011;38621;52.830;6.914;2023-03-14T00:18:46;6.72;;;2.47;;
52724;SDS011;38621;52.830;6.914;2023-03-14T00:21:12;12.00;;;2.90;;
52724;SDS011;38621;52.830;6.914;2023-03-14T00:23:39;7.00;;;2.00;;
52724;SDS011;38621;52.830;6.914;2023-03-14T00:26:07;5.57;;;2.28;;
52724;SDS011;38621;52.830;6.914;2023-03-14T00:28:37;7.88;;;2.35;;
52724;SDS011;38621;52.830;6.914;2023-03-14T00:31:04;6.78;;;2.90;;
52724;SDS011;38621;52.830;6.914;2023-03-14T00:33:31;7.47;;;3.28;;
52724;SDS011;38621;52.830;6.914;2023-03-14T00:35:58;9.70;;;3.38;;
52724;SDS011;38621;52.830;6.914;2023-03-14T00:38:30;7.65;;;2.80;;
52724;SDS011;38621;52.830;6.914;2023-03-14T00:40:57;9.45;;;3.17;;
52724;SDS011;38621;52.830;6.914;2023-03-14T00:43:23;12.57;;;3.72;;
52724;SDS011;38621;52.830;6.914;2023-03-14T00:45:52;9.25;;;3.42;;
52724;SDS011;38621;52.830;6.914;2023-03-14T00:48:18;8.40;;;3.35;;
52724;SDS011;38621;52.830;6.914;2023-03-14T00:50:45;7.28;;;3.30;;
52724;SDS011;38621;52.830;6.914;2023-03-14T00:53:11;6.70;;;3.03;;
52724;SDS011;38621;52.830;6.914;2023-03-14T00:55:38;8.30;;;3.50;;
52724;SDS011;38621;52.830;6.914;2023-03-14T00:58:05;7.25;;;3.63;;
52724;SDS011;38621;52.830;6.914;2023-03-14T01:00:30;7.07;;;3.72;;
52724;SDS011;38621;52.830;6.914;2023-03-14T01:02:57;7.88;;;3.97;;
52724;SDS011;38621;52.830;6.914;2023-03-14T01:05:23;9.93;;;4.72;;
52724;SDS011;38621;52.830;6.914;2023-03-14T01:07:49;8.15;;;4.70;;
52724;SDS011;38621;52.830;6.914;2023-03-14T01:10:15;7.05;;;3.83;;
52724;SDS011;38621;52.830;6.914;2023-03-14T01:12:41;6.47;;;4.07;;
52724;SDS011;38621;52.830;6.914;2023-03-14T01:15:07;6.65;;;3.55;;
52724;SDS011;38621;52.830;6.914;2023-03-14T01:17:33;5.55;;;2.80;;
52724;SDS011;38621;52.830;6.914;2023-03-14T01:19:59;9.82;;;2.75;;
52724;SDS011;38621;52.830;6.914;2023-03-14T01:22:26;4.93;;;2.38;;
52724;SDS011;38621;52.830;6.914;2023-03-14T01:24:51;4.13;;;2.28;;
52724;SDS011;38621;52.830;6.914;2023-03-14T01:27:17;4.43;;;2.03;;
52724;SDS011;38621;52.830;6.914;2023-03-14T01:29:43;4.65;;;2.30;;
52724;SDS011;38621;52.830;6.914;2023-03-14T01:32:08;7.22;;;2.30;;
52724;SDS011;38621;52.830;6.914;2023-03-14T01:34:34;8.10;;;2.53;;
52724;SDS011;38621;52.830;6.914;2023-03-14T01:37:00;7.60;;;2.67;;
52724;SDS011;38621;52.830;6.914;2023-03-14T01:39:26;6.30;;;3.30;;
52724;SDS011;38621;52.830;6.914;2023-03-14T01:41:51;5.60;;;2.60;;
52724;SDS011;38621;52.830;6.914;2023-03-14T01:44:17;7.38;;;3.72;;
52724;SDS011;38621;52.830;6.914;2023-03-14T01:46:43;8.95;;;3.58;;
52724;SDS011;38621;52.830;6.914;2023-03-14T01:54:33;6.80;;;3.13;;
52724;SDS011;38621;52.830;6.914;2023-03-14T01:59:39;9.15;;;3.53;;
52724;SDS011;38621;52.830;6.914;2023-03-14T02:02:09;9.70;;;3.90;;
52724;SDS011;38621;52.830;6.914;2023-03-14T02:04:37;10.80;;;3.67;;
52724;SDS011;38621;52.830;6.914;2023-03-14T02:09:45;7.88;;;3.42;;
52724;SDS011;38621;52.830;6.914;2023-03-14T02:12:13;7.97;;;3.53;;
52724;SDS011;38621;52.830;6.914;2023-03-14T02:14:41;8.98;;;3.50;;
52724;SDS011;38621;52.830;6.914;2023-03-14T02:17:12;8.57;;;3.13;;
52724;SDS011;38621;52.830;6.914;2023-03-14T02:22:11;6.72;;;3.22;;
52724;SDS011;38621;52.830;6.914;2023-03-14T02:24:50;6.35;;;2.90;;
52724;SDS011;38621;52.830;6.914;2023-03-14T02:27:31;9.63;;;4.82;;
52724;SDS011;38621;52.830;6.914;2023-03-14T02:30:31;8.93;;;3.83;;
52724;SDS011;38621;52.830;6.914;2023-03-14T02:32:53;10.52;;;3.08;;
52724;SDS011;38621;52.830;6.914;2023-03-14T02:35:22;7.90;;;2.88;;
52724;SDS011;38621;52.830;6.914;2023-03-14T02:37:53;7.82;;;2.70;;
52724;SDS011;38621;52.830;6.914;2023-03-14T02:40:24;8.45;;;2.80;;
52724;SDS011;38621;52.830;6.914;2023-03-14T02:42:50;8.23;;;3.25;;
52724;SDS011;38621;52.830;6.914;2023-03-14T02:47:46;10.63;;;2.78;;
52724;SDS011;38621;52.830;6.914;2023-03-14T02:50:22;7.10;;;2.25;;
52724;SDS011;38621;52.830;6.914;2023-03-14T02:52:51;4.45;;;2.45;;
52724;SDS011;38621;52.830;6.914;2023-03-14T02:55:20;6.75;;;3.47;;
52724;SDS011;38621;52.830;6.914;2023-03-14T02:57:47;8.75;;;2.53;;
52724;SDS011;38621;52.830;6.914;2023-03-14T03:00:12;6.78;;;1.98;;
52724;SDS011;38621;52.830;6.914;2023-03-14T03:02:39;5.22;;;2.20;;
52724;SDS011;38621;52.830;6.914;2023-03-14T03:05:05;6.72;;;2.30;;
52724;SDS011;38621;52.830;6.914;2023-03-14T03:07:31;3.42;;;1.52;;
52724;SDS011;38621;52.830;6.914;2023-03-14T03:09:57;4.72;;;1.70;;
52724;SDS011;38621;52.830;6.914;2023-03-14T03:12:22;4.20;;;1.70;;
52724;SDS011;38621;52.830;6.914;2023-03-14T03:14:48;5.93;;;2.08;;
52724;SDS011;38621;52.830;6.914;2023-03-14T03:17:14;5.47;;;1.75;;
52724;SDS011;38621;52.830;6.914;2023-03-14T03:19:40;3.47;;;1.95;;
52724;SDS011;38621;52.830;6.914;2023-03-14T03:22:06;5.30;;;2.00;;
52724;SDS011;38621;52.830;6.914;2023-03-14T03:24:31;9.02;;;2.28;;
52724;SDS011;38621;52.830;6.914;2023-03-14T03:26:57;4.82;;;2.13;;
52724;SDS011;38621;52.830;6.914;2023-03-14T03:29:23;5.00;;;2.28;;
52724;SDS011;38621;52.830;6.914;2023-03-14T03:31:48;8.18;;;3.38;;
52724;SDS011;38621;52.830;6.914;2023-03-14T03:34:14;4.07;;;1.90;;
52724;SDS011;38621;52.830;6.914;2023-03-14T03:36:40;5.70;;;2.38;;
52724;SDS011;38621;52.830;6.914;2023-03-14T03:39:06;4.20;;;2.10;;
52724;SDS011;38621;52.830;6.914;2023-03-14T03:41:32;4.22;;;2.30;;
52724;SDS011;38621;52.830;6.914;2023-03-14T03:43:58;7.05;;;2.33;;
52724;SDS011;38621;52.830;6.914;2023-03-14T03:46:24;4.80;;;2.30;;
52724;SDS011;38621;52.830;6.914;2023-03-14T03:48:57;4.80;;;2.40;;
52724;SDS011;38621;52.830;6.914;2023-03-14T03:51:24;8.10;;;2.63;;
52724;SDS011;38621;52.830;6.914;2023-03-14T03:53:49;5.35;;;2.70;;
52724;SDS011;38621;52.830;6.914;2023-03-14T03:56:15;5.28;;;2.60;;
52724;SDS011;38621;52.830;6.914;2023-03-14T03:58:41;5.95;;;2.90;;
52724;SDS011;38621;52.830;6.914;2023-03-14T04:01:08;7.05;;;3.00;;
52724;SDS011;38621;52.830;6.914;2023-03-14T04:03:34;5.75;;;2.67;;
52724;SDS011;38621;52.830;6.914;2023-03-14T04:06:01;5.85;;;2.50;;
52724;SDS011;38621;52.830;6.914;2023-03-14T04:08:30;6.00;;;2.20;;
52724;SDS011;38621;52.830;6.914;2023-03-14T04:10:56;5.50;;;2.20;;
52724;SDS011;38621;52.830;6.914;2023-03-14T04:13:24;6.55;;;2.40;;
52724;SDS011;38621;52.830;6.914;2023-03-14T04:15:50;6.70;;;1.83;;
52724;SDS011;38621;52.830;6.914;2023-03-14T04:18:16;6.10;;;2.03;;
52724;SDS011;38621;52.830;6.914;2023-03-14T04:20:42;6.00;;;2.20;;
52724;SDS011;38621;52.830;6.914;2023-03-14T04:23:08;5.75;;;2.38;;
52724;SDS011;38621;52.830;6.914;2023-03-14T04:25:33;5.78;;;2.05;;
52724;SDS011;38621;52.830;6.914;2023-03-14T04:27:59;6.30;;;2.17;;
52724;SDS011;38621;52.830;6.914;2023-03-14T04:30:25;4.57;;;1.92;;
52724;SDS011;38621;52.830;6.914;2023-03-14T04:32:50;6.35;;;2.83;;
52724;SDS011;38621;52.830;6.914;2023-03-14T04:35:16;7.18;;;2.47;;
52724;SDS011;38621;52.830;6.914;2023-03-14T04:37:42;9.52;;;3.13;;
52724;SDS011;38621;52.830;6.914;2023-03-14T04:40:08;8.88;;;2.70;;
52724;SDS011;38621;52.830;6.914;2023-03-14T04:42:35;4.90;;;2.10;;
52724;SDS011;38621;52.830;6.914;2023-03-14T04:45:01;5.82;;;2.58;;
52724;SDS011;38621;52.830;6.914;2023-03-14T04:47:27;6.03;;;2.90;;
52724;SDS011;38621;52.830;6.914;2023-03-14T04:49:53;5.07;;;2.85;;
52724;SDS011;38621;52.830;6.914;2023-03-14T04:52:19;6.78;;;3.05;;
52724;SDS011;38621;52.830;6.914;2023-03-14T04:54:44;6.68;;;2.63;;
52724;SDS011;38621;52.830;6.914;2023-03-14T04:57:10;9.25;;;3.80;;
52724;SDS011;38621;52.830;6.914;2023-03-14T04:59:36;9.30;;;3.35;;
52724;SDS011;38621;52.830;6.914;2023-03-14T05:02:01;6.15;;;3.60;;
52724;SDS011;38621;52.830;6.914;2023-03-14T05:04:27;5.85;;;3.25;;
52724;SDS011;38621;52.830;6.914;2023-03-14T05:06:54;5.88;;;3.58;;
52724;SDS011;38621;52.830;6.914;2023-03-14T05:09:20;5.28;;;2.92;;
52724;SDS011;38621;52.830;6.914;2023-03-14T05:11:45;7.32;;;3.20;;
52724;SDS011;38621;52.830;6.914;2023-03-14T05:14:11;7.18;;;3.13;;
52724;SDS011;38621;52.830;6.914;2023-03-14T05:16:37;7.93;;;3.22;;
52724;SDS011;38621;52.830;6.914;2023-03-14T05:19:02;6.88;;;2.78;;
52724;SDS011;38621;52.830;6.914;2023-03-14T05:21:28;4.75;;;2.80;;
52724;SDS011;38621;52.830;6.914;2023-03-14T05:23:54;6.63;;;2.70;;
52724;SDS011;38621;52.830;6.914;2023-03-14T05:26:19;3.80;;;2.50;;
52724;SDS011;38621;52.830;6.914;2023-03-14T05:28:45;7.70;;;2.70;;
52724;SDS011;38621;52.830;6.914;2023-03-14T05:31:11;4.43;;;2.13;;
52724;SDS011;38621;52.830;6.914;2023-03-14T05:33:36;5.13;;;2.33;;
52724;SDS011;38621;52.830;6.914;2023-03-14T05:36:02;4.68;;;2.15;;
52724;SDS011;38621;52.830;6.914;2023-03-14T05:38:28;7.78;;;4.10;;
52724;SDS011;38621;52.830;6.914;2023-03-14T05:40:54;4.80;;;2.35;;
52724;SDS011;38621;52.830;6.914;2023-03-14T05:43:19;6.85;;;2.80;;
52724;SDS011;38621;52.830;6.914;2023-03-14T05:45:45;7.57;;;2.53;;
52724;SDS011;38621;52.830;6.914;2023-03-14T05:48:11;7.30;;;2.88;;
52724;SDS011;38621;52.830;6.914;2023-03-14T05:50:36;3.95;;;2.22;;
52724;SDS011;38621;52.830;6.914;2023-03-14T05:53:02;4.47;;;2.50;;
52724;SDS011;38621;52.830;6.914;2023-03-14T05:55:28;7.13;;;2.65;;
52724;SDS011;38621;52.830;6.914;2023-03-14T05:57:54;6.25;;;2.33;;
52724;SDS011;38621;52.830;6.914;2023-03-14T06:00:20;5.22;;;2.13;;
52724;SDS011;38621;52.830;6.914;2023-03-14T06:02:46;4.90;;;2.30;;
52724;SDS011;38621;52.830;6.914;2023-03-14T06:05:12;6.20;;;2.08;;
52724;SDS011;38621;52.830;6.914;2023-03-14T06:07:38;6.32;;;2.65;;
52724;SDS011;38621;52.830;6.914;2023-03-14T06:10:03;6.22;;;2.80;;
52724;SDS011;38621;52.830;6.914;2023-03-14T06:12:30;6.18;;;2.72;;
52724;SDS011;38621;52.830;6.914;2023-03-14T06:14:55;6.60;;;2.70;;
52724;SDS011;38621;52.830;6.914;2023-03-14T06:17:21;6.80;;;2.60;;
52724;SDS011;38621;52.830;6.914;2023-03-14T06:19:47;5.88;;;2.38;;
52724;SDS011;38621;52.830;6.914;2023-03-14T06:22:12;5.47;;;2.10;;
52724;SDS011;38621;52.830;6.914;2023-03-14T06:24:38;7.07;;;2.47;;
52724;SDS011;38621;52.830;6.914;2023-03-14T06:27:04;6.38;;;1.95;;
52724;SDS011;38621;52.830;6.914;2023-03-14T06:29:30;6.13;;;2.55;;
52724;SDS011;38621;52.830;6.914;2023-03-14T06:31:56;6.30;;;2.97;;
52724;SDS011;38621;52.830;6.914;2023-03-14T06:34:22;7.10;;;2.30;;
52724;SDS011;38621;52.830;6.914;2023-03-14T06:36:48;5.57;;;2.20;;
52724;SDS011;38621;52.830;6.914;2023-03-14T06:39:13;6.65;;;2.88;;
52724;SDS011;38621;52.830;6.914;2023-03-14T06:41:39;7.18;;;2.55;;
52724;SDS011;38621;52.830;6.914;2023-03-14T06:44:05;4.65;;;2.67;;
52724;SDS011;38621;52.830;6.914;2023-03-14T06:46:30;8.20;;;3.00;;
52724;SDS011;38621;52.830;6.914;2023-03-14T06:48:56;6.68;;;3.00;;
52724;SDS011;38621;52.830;6.914;2023-03-14T06:51:22;7.40;;;2.92;;
52724;SDS011;38621;52.830;6.914;2023-03-14T06:53:48;8.75;;;3.05;;
52724;SDS011;38621;52.830;6.914;2023-03-14T06:56:13;7.25;;;2.85;;
52724;SDS011;38621;52.830;6.914;2023-03-14T06:58:39;7.43;;;2.88;;
52724;SDS011;38621;52.830;6.914;2023-03-14T07:01:05;7.22;;;2.60;;
52724;SDS011;38621;52.830;6.914;2023-03-14T07:03:40;4.70;;;2.33;;
52724;SDS011;38621;52.830;6.914;2023-03-14T07:06:06;4.55;;;2.65;;
52724;SDS011;38621;52.830;6.914;2023-03-14T07:08:32;3.85;;;2.10;;
52724;SDS011;38621;52.830;6.914;2023-03-14T07:10:57;8.05;;;2.20;;
52724;SDS011;38621;52.830;6.914;2023-03-14T07:13:23;5.93;;;2.58;;
52724;SDS011;38621;52.830;6.914;2023-03-14T07:15:49;5.25;;;2.50;;
52724;SDS011;38621;52.830;6.914;2023-03-14T07:18:14;5.55;;;2.53;;
52724;SDS011;38621;52.830;6.914;2023-03-14T07:20:40;7.30;;;3.33;;
52724;SDS011;38621;52.830;6.914;2023-03-14T07:23:06;6.72;;;2.95;;
52724;SDS011;38621;52.830;6.914;2023-03-14T07:25:31;7.57;;;3.15;;
52724;SDS011;38621;52.830;6.914;2023-03-14T07:27:57;9.25;;;3.40;;
52724;SDS011;38621;52.830;6.914;2023-03-14T07:30:23;7.43;;;3.15;;
52724;SDS011;38621;52.830;6.914;2023-03-14T07:32:48;6.90;;;3.75;;
52724;SDS011;38621;52.830;6.914;2023-03-14T07:35:14;6.10;;;3.10;;
52724;SDS011;38621;52.830;6.914;2023-03-14T07:37:40;8.35;;;2.47;;
52724;SDS011;38621;52.830;6.914;2023-03-14T07:40:06;3.97;;;1.50;;
52724;SDS011;38621;52.830;6.914;2023-03-14T07:42:32;2.97;;;1.77;;
52724;SDS011;38621;52.830;6.914;2023-03-14T07:44:57;3.42;;;1.10;;
52724;SDS011;38621;52.830;6.914;2023-03-14T07:47:23;2.35;;;1.00;;
52724;SDS011;38621;52.830;6.914;2023-03-14T07:49:49;4.55;;;1.40;;
52724;SDS011;38621;52.830;6.914;2023-03-14T07:52:14;2.95;;;0.68;;
52724;SDS011;38621;52.830;6.914;2023-03-14T07:54:40;2.67;;;0.60;;
52724;SDS011;38621;52.830;6.914;2023-03-14T07:57:06;2.33;;;0.60;;
52724;SDS011;38621;52.830;6.914;2023-03-14T07:59:31;2.28;;;0.60;;
52724;SDS011;38621;52.830;6.914;2023-03-14T08:01:57;2.25;;;0.77;;
52724;SDS011;38621;52.830;6.914;2023-03-14T08:04:23;0.85;;;0.40;;
52724;SDS011;38621;52.830;6.914;2023-03-14T08:06:49;4.57;;;0.90;;
52724;SDS011;38621;52.830;6.914;2023-03-14T08:09:15;1.95;;;0.88;;
52724;SDS011;38621;52.830;6.914;2023-03-14T08:11:40;1.75;;;0.85;;
52724;SDS011;38621;52.830;6.914;2023-03-14T08:14:06;4.32;;;0.90;;
52724;SDS011;38621;52.830;6.914;2023-03-14T08:16:32;4.25;;;0.70;;
52724;SDS011;38621;52.830;6.914;2023-03-14T08:18:57;3.97;;;0.70;;
52724;SDS011;38621;52.830;6.914;2023-03-14T08:21:23;1.80;;;0.68;;
52724;SDS011;38621;52.830;6.914;2023-03-14T08:23:49;1.67;;;0.73;;
52724;SDS011;38621;52.830;6.914;2023-03-14T08:26:14;2.10;;;0.60;;
52724;SDS011;38621;52.830;6.914;2023-03-14T08:28:40;1.98;;;0.47;;
52724;SDS011;38621;52.830;6.914;2023-03-14T08:31:06;1.25;;;0.47;;
52724;SDS011;38621;52.830;6.914;2023-03-14T08:33:32;0.70;;;0.40;;
52724;SDS011;38621;52.830;6.914;2023-03-14T08:35:58;0.43;;;0.30;;
52724;SDS011;38621;52.830;6.914;2023-03-14T08:38:25;0.43;;;0.40;;
52724;SDS011;38621;52.830;6.914;2023-03-14T08:40:55;1.50;;;0.35;;
52724;SDS011;38621;52.830;6.914;2023-03-14T08:43:25;1.08;;;0.40;;
52724;SDS011;38621;52.830;6.914;2023-03-14T08:45:51;1.50;;;0.57;;
52724;SDS011;38621;52.830;6.914;2023-03-14T08:48:16;0.68;;;0.40;;
52724;SDS011;38621;52.830;6.914;2023-03-14T08:50:42;1.30;;;0.50;;
52724;SDS011;38621;52.830;6.914;2023-03-14T08:53:08;1.65;;;0.50;;
52724;SDS011;38621;52.830;6.914;2023-03-14T08:55:34;1.00;;;0.50;;
52724;SDS011;38621;52.830;6.914;2023-03-14T08:58:00;0.77;;;0.32;;
52724;SDS011;38621;52.830;6.914;2023-03-14T09:00:25;1.23;;;0.50;;
52724;SDS011;38621;52.830;6.914;2023-03-14T09:02:51;1.15;;;0.50;;
52724;SDS011;38621;52.830;6.914;2023-03-14T09:05:16;2.38;;;0.57;;
52724;SDS011;38621;52.830;6.914;2023-03-14T09:07:42;4.18;;;0.60;;
52724;SDS011;38621;52.830;6.914;2023-03-14T09:10:09;1.42;;;0.43;;
52724;SDS011;38621;52.830;6.914;2023-03-14T09:12:35;0.85;;;0.45;;
52724;SDS011;38621;52.830;6.914;2023-03-14T09:15:01;1.17;;;0.50;;
52724;SDS011;38621;52.830;6.914;2023-03-14T09:17:27;0.90;;;0.50;;
52724;SDS011;38621;52.830;6.914;2023-03-14T09:19:52;2.05;;;0.60;;
52724;SDS011;38621;52.830;6.914;2023-03-14T09:22:18;2.25;;;0.65;;
52724;SDS011;38621;52.830;6.914;2023-03-14T09:24:45;2.30;;;0.60;;
52724;SDS011;38621;52.830;6.914;2023-03-14T09:27:11;2.35;;;0.65;;
52724;SDS011;38621;52.830;6.914;2023-03-14T09:29:37;1.77;;;0.93;;
52724;SDS011;38621;52.830;6.914;2023-03-14T09:32:02;1.88;;;0.65;;
52724;SDS011;38621;52.830;6.914;2023-03-14T09:34:28;2.50;;;0.70;;
52724;SDS011;38621;52.830;6.914;2023-03-14T09:36:54;2.35;;;0.65;;
52724;SDS011;38621;52.830;6.914;2023-03-14T09:39:20;3.55;;;0.80;;
52724;SDS011;38621;52.830;6.914;2023-03-14T09:41:47;3.17;;;0.90;;
52724;SDS011;38621;52.830;6.914;2023-03-14T09:46:45;3.20;;;1.08;;
52724;SDS011;38621;52.830;6.914;2023-03-14T09:49:23;4.40;;;0.80;;
52724;SDS011;38621;52.830;6.914;2023-03-14T09:51:54;9.32;;;2.15;;
52724;SDS011;38621;52.830;6.914;2023-03-14T09:54:31;3.70;;;1.00;;
52724;SDS011;38621;52.830;6.914;2023-03-14T09:57:03;3.63;;;0.80;;
52724;SDS011;38621;52.830;6.914;2023-03-14T09:59:30;6.10;;;1.42;;
52724;SDS011;38621;52.830;6.914;2023-03-14T10:02:11;6.35;;;1.20;;
52724;SDS011;38621;52.830;6.914;2023-03-14T10:04:40;3.53;;;1.10;;
52724;SDS011;38621;52.830;6.914;2023-03-14T10:07:16;5.60;;;1.48;;
52724;SDS011;38621;52.830;6.914;2023-03-14T10:09:50;10.45;;;1.65;;
52724;SDS011;38621;52.830;6.914;2023-03-14T10:12:16;5.55;;;1.75;;
52724;SDS011;38621;52.830;6.914;2023-03-14T10:14:47;7.53;;;1.33;;
52724;SDS011;38621;52.830;6.914;2023-03-14T10:17:15;7.40;;;1.50;;
52724;SDS011;38621;52.830;6.914;2023-03-14T10:20:03;7.13;;;1.40;;
52724;SDS011;38621;52.830;6.914;2023-03-14T10:22:31;5.15;;;1.42;;
52724;SDS011;38621;52.830;6.914;2023-03-14T10:25:02;6.10;;;1.30;;
52724;SDS011;38621;52.830;6.914;2023-03-14T10:27:33;8.07;;;1.88;;
52724;SDS011;38621;52.830;6.914;2023-03-14T10:30:01;6.18;;;1.80;;
52724;SDS011;38621;52.830;6.914;2023-03-14T10:32:35;6.60;;;1.40;;
52724;SDS011;38621;52.830;6.914;2023-03-14T10:35:19;10.82;;;1.92;;
52724;SDS011;38621;52.830;6.914;2023-03-14T10:40:23;7.40;;;1.67;;
52724;SDS011;38621;52.830;6.914;2023-03-14T10:42:53;9.48;;;2.80;;
52724;SDS011;38621;52.830;6.914;2023-03-14T10:51:07;6.95;;;1.92;;
52724;SDS011;38621;52.830;6.914;2023-03-14T10:53:48;8.00;;;1.65;;
52724;SDS011;38621;52.830;6.914;2023-03-14T10:56:20;8.02;;;1.83;;
52724;SDS011;38621;52.830;6.914;2023-03-14T10:58:48;8.73;;;1.50;;
52724;SDS011;38621;52.830;6.914;2023-03-14T11:15:53;9.45;;;1.67;;
52724;SDS011;38621;52.830;6.914;2023-03-14T11:27:05;7.25;;;1.58;;
52724;SDS011;38621;52.830;6.914;2023-03-14T11:29:45;10.95;;;2.45;;
52724;SDS011;38621;52.830;6.914;2023-03-14T11:32:40;7.35;;;2.08;;
52724;SDS011;38621;52.830;6.914;2023-03-14T11:35:33;9.40;;;1.50;;
52724;SDS011;38621;52.830;6.914;2023-03-14T11:38:10;4.95;;;1.50;;
52724;SDS011;38621;52.830;6.914;2023-03-14T11:40:47;6.70;;;1.35;;
52724;SDS011;38621;52.830;6.914;2023-03-14T11:45:48;8.38;;;1.70;;
52724;SDS011;38621;52.830;6.914;2023-03-14T11:51:09;5.70;;;1.30;;
52724;SDS011;38621;52.830;6.914;2023-03-14T11:53:55;7.28;;;2.33;;
52724;SDS011;38621;52.830;6.914;2023-03-14T11:59:16;6.45;;;1.70;;
52724;SDS011;38621;52.830;6.914;2023-03-14T12:01:51;5.30;;;1.60;;
52724;SDS011;38621;52.830;6.914;2023-03-14T12:04:41;5.20;;;1.20;;
52724;SDS011;38621;52.830;6.914;2023-03-14T12:07:18;5.65;;;1.13;;
52724;SDS011;38621;52.830;6.914;2023-03-14T12:09:47;5.25;;;1.20;;
52724;SDS011;38621;52.830;6.914;2023-03-14T12:12:17;8.85;;;1.23;;
52724;SDS011;38621;52.830;6.914;2023-03-14T12:14:58;6.65;;;2.42;;
52724;SDS011;38621;52.830;6.914;2023-03-14T12:17:27;5.93;;;1.00;;
52724;SDS011;38621;52.830;6.914;2023-03-14T12:20:02;5.88;;;1.58;;
52724;SDS011;38621;52.830;6.914;2023-03-14T12:22:35;3.15;;;1.10;;
52724;SDS011;38621;52.830;6.914;2023-03-14T12:27:47;6.97;;;1.40;;
52724;SDS011;38621;52.830;6.914;2023-03-14T12:43:45;3.60;;;0.93;;
52724;SDS011;38621;52.830;6.914;2023-03-14T12:48:47;2.45;;;0.85;;
52724;SDS011;38621;52.830;6.914;2023-03-14T12:51:20;2.90;;;0.73;;
52724;SDS011;38621;52.830;6.914;2023-03-14T13:02:23;5.70;;;1.48;;
52724;SDS011;38621;52.830;6.914;2023-03-14T13:04:59;4.15;;;2.17;;
52724;SDS011;38621;52.830;6.914;2023-03-14T13:07:34;3.25;;;1.10;;
52724;SDS011;38621;52.830;6.914;2023-03-14T13:10:19;3.00;;;0.70;;
52724;SDS011;38621;52.830;6.914;2023-03-14T13:12:56;4.00;;;1.02;;
52724;SDS011;38621;52.830;6.914;2023-03-14T13:15:40;4.97;;;1.20;;
52724;SDS011;38621;52.830;6.914;2023-03-14T13:18:12;4.03;;;0.90;;
52724;SDS011;38621;52.830;6.914;2023-03-14T13:20:45;4.68;;;1.15;;
52724;SDS011;38621;52.830;6.914;2023-03-14T13:23:21;4.40;;;1.00;;
52724;SDS011;38621;52.830;6.914;2023-03-14T13:25:52;2.13;;;1.08;;
52724;SDS011;38621;52.830;6.914;2023-03-14T13:28:18;3.20;;;1.05;;
52724;SDS011;38621;52.830;6.914;2023-03-14T13:30:46;1.75;;;0.90;;
52724;SDS011;38621;52.830;6.914;2023-03-14T13:33:17;3.50;;;1.23;;
52724;SDS011;38621;52.830;6.914;2023-03-14T13:38:25;5.55;;;1.00;;
52724;SDS011;38621;52.830;6.914;2023-03-14T13:40:54;2.72;;;0.80;;
52724;SDS011;38621;52.830;6.914;2023-03-14T13:43:31;4.35;;;0.90;;
52724;SDS011;38621;52.830;6.914;2023-03-14T13:46:31;2.55;;;0.70;;
52724;SDS011;38621;52.830;6.914;2023-03-14T13:49:24;3.00;;;0.80;;
52724;SDS011;38621;52.830;6.914;2023-03-14T13:51:46;2.60;;;0.80;;
52724;SDS011;38621;52.830;6.914;2023-03-14T13:54:13;5.43;;;0.90;;
52724;SDS011;38621;52.830;6.914;2023-03-14T13:56:40;2.95;;;1.00;;
52724;SDS011;38621;52.830;6.914;2023-03-14T13:59:22;3.10;;;0.70;;
52724;SDS011;38621;52.830;6.914;2023-03-14T14:01:48;3.53;;;0.70;;
52724;SDS011;38621;52.830;6.914;2023-03-14T14:04:16;1.85;;;0.77;;
52724;SDS011;38621;52.830;6.914;2023-03-14T14:06:56;2.75;;;0.75;;
52724;SDS011;38621;52.830;6.914;2023-03-14T14:09:24;3.40;;;1.20;;
52724;SDS011;38621;52.830;6.914;2023-03-14T14:15:09;3.28;;;1.23;;
52724;SDS011;38621;52.830;6.914;2023-03-14T14:17:16;4.22;;;1.52;;
52724;SDS011;38621;52.830;6.914;2023-03-14T14:19:51;2.67;;;1.02;;
52724;SDS011;38621;52.830;6.914;2023-03-14T14:22:18;2.65;;;0.85;;
52724;SDS011;38621;52.830;6.914;2023-03-14T14:24:45;2.88;;;0.90;;
52724;SDS011;38621;52.830;6.914;2023-03-14T14:27:28;3.05;;;0.73;;
52724;SDS011;38621;52.830;6.914;2023-03-14T14:30:21;4.75;;;1.10;;
52724;SDS011;38621;52.830;6.914;2023-03-14T14:32:50;4.47;;;1.17;;
52724;SDS011;38621;52.830;6.914;2023-03-14T14:35:23;4.00;;;0.98;;
52724;SDS011;38621;52.830;6.914;2023-03-14T14:37:52;3.75;;;1.00;;
52724;SDS011;38621;52.830;6.914;2023-03-14T14:40:22;2.92;;;1.00;;
52724;SDS011;38621;52.830;6.914;2023-03-14T14:42:50;4.50;;;0.95;;
52724;SDS011;38621;52.830;6.914;2023-03-14T14:45:17;3.83;;;0.90;;
52724;SDS011;38621;52.830;6.914;2023-03-14T14:52:55;2.72;;;0.80;;
52724;SDS011;38621;52.830;6.914;2023-03-14T14:55:30;4.22;;;0.77;;
52724;SDS011;38621;52.830;6.914;2023-03-14T15:01:13;4.38;;;1.10;;
52724;SDS011;38621;52.830;6.914;2023-03-14T15:03:43;2.42;;;0.88;;
52724;SDS011;38621;52.830;6.914;2023-03-14T15:06:13;3.35;;;0.80;;
52724;SDS011;38621;52.830;6.914;2023-03-14T15:08:39;2.08;;;0.70;;
52724;SDS011;38621;52.830;6.914;2023-03-14T15:11:08;2.05;;;0.88;;
52724;SDS011;38621;52.830;6.914;2023-03-14T15:13:42;3.42;;;0.70;;
52724;SDS011;38621;52.830;6.914;2023-03-14T15:16:11;3.72;;;0.90;;
52724;SDS011;38621;52.830;6.914;2023-03-14T15:18:39;5.47;;;0.90;;
52724;SDS011;38621;52.830;6.914;2023-03-14T15:21:05;2.20;;;0.85;;
52724;SDS011;38621;52.830;6.914;2023-03-14T15:23:30;2.90;;;1.25;;
52724;SDS011;38621;52.830;6.914;2023-03-14T15:25:56;2.90;;;0.75;;
52724;SDS011;38621;52.830;6.914;2023-03-14T15:28:26;5.40;;;1.10;;
52724;SDS011;38621;52.830;6.914;2023-03-14T15:30:54;3.50;;;1.13;;
52724;SDS011;38621;52.830;6.914;2023-03-14T15:33:21;2.38;;;1.00;;
52724;SDS011;38621;52.830;6.914;2023-03-14T15:35:47;4.47;;;1.33;;
52724;SDS011;38621;52.830;6.914;2023-03-14T15:38:16;4.43;;;1.20;;
52724;SDS011;38621;52.830;6.914;2023-03-14T15:40:45;2.70;;;1.15;;
52724;SDS011;38621;52.830;6.914;2023-03-14T15:43:11;2.83;;;1.02;;
52724;SDS011;38621;52.830;6.914;2023-03-14T15:45:37;5.43;;;1.35;;
52724;SDS011;38621;52.830;6.914;2023-03-14T15:48:03;3.92;;;1.48;;
52724;SDS011;38621;52.830;6.914;2023-03-14T15:50:29;3.30;;;1.48;;
52724;SDS011;38621;52.830;6.914;2023-03-14T15:52:55;2.65;;;0.90;;
52724;SDS011;38621;52.830;6.914;2023-03-14T15:55:21;2.65;;;1.02;;
52724;SDS011;38621;52.830;6.914;2023-03-14T15:57:47;3.38;;;0.73;;
52724;SDS011;38621;52.830;6.914;2023-03-14T16:00:14;3.05;;;0.85;;
52724;SDS011;38621;52.830;6.914;2023-03-14T16:02:43;3.05;;;0.85;;
52724;SDS011;38621;52.830;6.914;2023-03-14T16:05:10;2.47;;;0.80;;
52724;SDS011;38621;52.830;6.914;2023-03-14T16:07:37;1.38;;;0.63;;
52724;SDS011;38621;52.830;6.914;2023-03-14T16:10:03;3.38;;;0.90;;
52724;SDS011;38621;52.830;6.914;2023-03-14T16:12:30;3.50;;;1.00;;
52724;SDS011;38621;52.830;6.914;2023-03-14T16:14:56;5.05;;;0.98;;
52724;SDS011;38621;52.830;6.914;2023-03-14T16:17:21;4.40;;;1.33;;
52724;SDS011;38621;52.830;6.914;2023-03-14T16:19:47;3.22;;;0.80;;
52724;SDS011;38621;52.830;6.914;2023-03-14T16:22:13;3.78;;;1.08;;
52724;SDS011;38621;52.830;6.914;2023-03-14T16:24:38;3.10;;;1.15;;
52724;SDS011;38621;52.830;6.914;2023-03-14T16:27:04;4.13;;;0.98;;
52724;SDS011;38621;52.830;6.914;2023-03-14T16:29:31;3.08;;;1.17;;
52724;SDS011;38621;52.830;6.914;2023-03-14T16:31:58;4.53;;;1.23;;
52724;SDS011;38621;52.830;6.914;2023-03-14T16:34:23;4.13;;;1.00;;